Time;durP1;ratioP1;P1;durP2;ratioP2;P2;SDS_P1;SDS_P2;PMS_P1;PMS_P2;Temp;Humidity;BMP_temperature;BMP_pressure;BME280_temperature;BME280_humidity;BME280_pressure;Samples;Min_cycle;Max_cycle;Signal;HPM_P1;HPM_P2
2023/12/27 00:01:22;;;;;;;3.50;0.40;;;;;;;;;;5015358;28;20229;-71
2023/12/27 00:03:48;;;;;;;0.95;0.30;;;;;;;;;;5014487;28;20029;-70
2023/12/27 00:06:13;;;;;;;2.75;0.55;;;;;;;;;;5013287;28;20178;-69
2023/12/27 00:08:38;;;;;;;1.35;0.35;;;;;;;;;;5001127;28;20107;-70
2023/12/27 00:11:04;;;;;;;3.35;0.70;;;;;;;;;;5014166;28;20045;-70
2023/12/27 00:13:29;;;;;;;2.33;0.55;;;;;;;;;;5014638;28;20064;-72
2023/12/27 00:15:54;;;;;;;3.03;0.68;;;;;;;;;;5010735;28;20049;-70
2023/12/27 00:18:20;;;;;;;2.50;0.50;;;;;;;;;;5013900;28;20088;-70
2023/12/27 00:20:47;;;;;;;0.20;0.20;;;;;;;;;;5014843;28;20044;-70
2023/12/27 00:23:13;;;;;;;2.17;0.25;;;;;;;;;;4999998;28;20436;-70
2023/12/27 00:25:39;;;;;;;3.83;0.68;;;;;;;;;;5015239;28;20037;-70
2023/12/27 00:28:04;;;;;;;3.17;0.80;;;;;;;;;;5013648;28;20037;-70
2023/12/27 00:30:31;;;;;;;6.28;0.63;;;;;;;;;;5015283;28;20123;-72
2023/12/27 00:32:56;;;;;;;2.78;0.45;;;;;;;;;;4998394;28;20037;-72
2023/12/27 00:35:22;;;;;;;2.58;0.40;;;;;;;;;;5014799;28;20566;-69
2023/12/27 00:37:47;;;;;;;2.17;0.30;;;;;;;;;;5003483;28;20037;-70
2023/12/27 00:40:13;;;;;;;2.60;0.63;;;;;;;;;;5014853;28;20053;-70
2023/12/27 00:42:38;;;;;;;3.40;0.55;;;;;;;;;;5014527;28;20403;-70
2023/12/27 00:45:04;;;;;;;2.53;0.50;;;;;;;;;;5012756;28;20061;-69
2023/12/27 00:47:29;;;;;;;3.58;0.75;;;;;;;;;;5014275;28;20041;-72
2023/12/27 00:49:55;;;;;;;2.22;0.40;;;;;;;;;;5013898;28;20800;-70
2023/12/27 00:52:20;;;;;;;1.05;0.40;;;;;;;;;;5003252;28;20030;-72
2023/12/27 00:54:46;;;;;;;1.55;0.47;;;;;;;;;;5014178;28;20041;-70
2023/12/27 00:57:11;;;;;;;3.78;0.40;;;;;;;;;;5014594;28;20120;-70
2023/12/27 00:59:37;;;;;;;1.63;0.40;;;;;;;;;;5011744;28;20045;-70
2023/12/27 01:02:02;;;;;;;4.15;0.55;;;;;;;;;;5009403;28;20045;-70
2023/12/27 01:04:28;;;;;;;3.90;0.60;;;;;;;;;;5012267;28;20140;-72
2023/12/27 01:06:53;;;;;;;1.55;0.63;;;;;;;;;;5004224;28;20050;-70
2023/12/27 01:09:18;;;;;;;3.90;0.63;;;;;;;;;;5014312;28;20041;-70
2023/12/27 01:11:44;;;;;;;1.52;0.40;;;;;;;;;;5005736;28;20034;-73
2023/12/27 01:14:09;;;;;;;2.08;0.60;;;;;;;;;;5005585;28;20116;-70
2023/12/27 01:16:35;;;;;;;2.05;0.55;;;;;;;;;;5013408;28;20033;-71
2023/12/27 01:19:00;;;;;;;2.00;0.40;;;;;;;;;;5013470;28;20136;-70
2023/12/27 01:21:25;;;;;;;3.60;0.50;;;;;;;;;;5003251;28;20049;-70
2023/12/27 01:23:51;;;;;;;1.52;0.40;;;;;;;;;;5014494;28;20482;-70
2023/12/27 01:26:17;;;;;;;3.95;0.52;;;;;;;;;;5014333;28;20041;-71
2023/12/27 01:28:42;;;;;;;2.92;0.50;;;;;;;;;;5013696;28;20044;-70
2023/12/27 01:31:09;;;;;;;1.45;0.50;;;;;;;;;;5013972;28;20037;-70
2023/12/27 01:33:34;;;;;;;3.42;0.47;;;;;;;;;;5011907;28;20037;-71
2023/12/27 01:36:05;;;;;;;0.50;0.30;;;;;;;;;;5007542;28;20049;-70
2023/12/27 01:38:30;;;;;;;2.63;0.80;;;;;;;;;;5013279;28;20049;-71
2023/12/27 01:40:56;;;;;;;2.45;0.40;;;;;;;;;;5013909;28;20041;-70
2023/12/27 01:43:21;;;;;;;1.30;0.45;;;;;;;;;;5014082;28;20037;-70
2023/12/27 01:45:50;;;;;;;2.03;0.60;;;;;;;;;;5014625;28;20044;-70
2023/12/27 01:48:20;;;;;;;2.38;0.70;;;;;;;;;;5001435;28;20060;-70
2023/12/27 01:50:45;;;;;;;3.53;0.82;;;;;;;;;;5017177;28;20510;-70
2023/12/27 01:53:11;;;;;;;4.63;0.70;;;;;;;;;;5017504;28;20072;-70
2023/12/27 01:55:36;;;;;;;6.35;0.88;;;;;;;;;;5014725;28;20116;-70
2023/12/27 01:58:02;;;;;;;2.40;0.25;;;;;;;;;;5017361;28;20041;-70
2023/12/27 02:00:28;;;;;;;3.17;0.80;;;;;;;;;;5018058;28;20583;-70
2023/12/27 02:02:53;;;;;;;2.08;0.47;;;;;;;;;;5006302;28;20161;-70
2023/12/27 02:05:19;;;;;;;1.88;0.30;;;;;;;;;;5014828;28;20033;-70
2023/12/27 02:07:46;;;;;;;2.00;0.60;;;;;;;;;;5008848;28;20092;-71
2023/12/27 02:10:11;;;;;;;1.23;0.40;;;;;;;;;;5008360;28;20041;-71
2023/12/27 02:12:36;;;;;;;1.48;0.50;;;;;;;;;;5015429;28;20045;-70
2023/12/27 02:15:02;;;;;;;2.15;0.43;;;;;;;;;;5015561;28;20120;-71
2023/12/27 02:17:28;;;;;;;1.30;0.30;;;;;;;;;;5005927;28;20962;-69
2023/12/27 02:19:54;;;;;;;3.25;0.65;;;;;;;;;;5015185;28;20034;-69
2023/12/27 02:22:20;;;;;;;0.65;0.30;;;;;;;;;;5016963;28;20056;-70
2023/12/27 02:24:49;;;;;;;1.38;0.35;;;;;;;;;;5016160;28;20128;-69
2023/12/27 02:27:14;;;;;;;2.05;0.57;;;;;;;;;;5011873;28;20041;-69
2023/12/27 02:29:40;;;;;;;2.97;0.55;;;;;;;;;;5006026;28;20059;-70
2023/12/27 02:32:05;;;;;;;1.60;0.68;;;;;;;;;;5017268;28;20088;-70
2023/12/27 02:34:31;;;;;;;4.82;0.50;;;;;;;;;;5014846;28;20042;-71
2023/12/27 02:36:56;;;;;;;1.45;0.40;;;;;;;;;;5018469;28;20608;-71
2023/12/27 02:39:21;;;;;;;1.95;0.82;;;;;;;;;;5015782;28;20034;-71
2023/12/27 02:41:47;;;;;;;0.73;0.38;;;;;;;;;;5016780;28;20168;-70
2023/12/27 02:44:12;;;;;;;1.67;0.50;;;;;;;;;;5005778;28;20037;-70
2023/12/27 02:46:37;;;;;;;1.05;0.50;;;;;;;;;;5016347;28;20112;-70
2023/12/27 02:49:03;;;;;;;3.33;0.40;;;;;;;;;;5016067;28;20049;-71
2023/12/27 02:51:28;;;;;;;1.80;0.60;;;;;;;;;;5015369;28;20071;-70
2023/12/27 02:53:53;;;;;;;1.75;0.55;;;;;;;;;;5017393;28;20084;-71
2023/12/27 02:56:20;;;;;;;1.55;0.40;;;;;;;;;;5014389;28;20037;-71
2023/12/27 02:58:45;;;;;;;1.20;0.30;;;;;;;;;;5005524;28;20431;-72
2023/12/27 03:01:10;;;;;;;7.03;0.80;;;;;;;;;;5015173;28;20064;-70
2023/12/27 03:03:36;;;;;;;1.38;0.60;;;;;;;;;;5016773;28;20119;-71
2023/12/27 03:06:01;;;;;;;1.50;0.35;;;;;;;;;;5009159;28;20033;-70
2023/12/27 03:08:27;;;;;;;1.13;0.40;;;;;;;;;;5011253;28;20454;-70
2023/12/27 03:10:52;;;;;;;2.08;0.50;;;;;;;;;;5012893;28;20029;-72
2023/12/27 03:13:18;;;;;;;1.00;0.40;;;;;;;;;;5003134;28;20546;-71
2023/12/27 03:15:43;;;;;;;0.68;0.30;;;;;;;;;;5015471;28;20053;-71
2023/12/27 03:18:08;;;;;;;0.75;0.40;;;;;;;;;;5013114;28;20523;-70
2023/12/27 03:20:34;;;;;;;2.80;0.38;;;;;;;;;;5014440;28;20461;-70
2023/12/27 03:22:59;;;;;;;2.85;0.40;;;;;;;;;;5013730;28;20467;-71
2023/12/27 03:25:24;;;;;;;1.20;0.30;;;;;;;;;;5014564;28;20033;-69
2023/12/27 03:27:50;;;;;;;2.30;0.50;;;;;;;;;;5004021;28;20052;-71
2023/12/27 03:30:15;;;;;;;1.45;0.43;;;;;;;;;;5000404;28;20033;-70
2023/12/27 03:32:40;;;;;;;0.73;0.38;;;;;;;;;;5013394;28;20064;-71
2023/12/27 03:35:06;;;;;;;0.68;0.50;;;;;;;;;;5011696;28;20067;-71
2023/12/27 03:37:31;;;;;;;2.25;0.60;;;;;;;;;;5013574;28;20481;-69
2023/12/27 03:39:57;;;;;;;1.48;0.50;;;;;;;;;;5015459;28;20037;-70
2023/12/27 03:42:22;;;;;;;0.85;0.47;;;;;;;;;;5004525;28;20037;-70
2023/12/27 03:44:52;;;;;;;4.00;0.50;;;;;;;;;;5014068;28;20591;-71
2023/12/27 03:47:18;;;;;;;1.00;0.38;;;;;;;;;;5014710;28;20045;-71
2023/12/27 03:49:43;;;;;;;1.15;0.60;;;;;;;;;;5015739;28;20505;-70
2023/12/27 03:52:09;;;;;;;1.48;0.50;;;;;;;;;;5015289;28;20084;-70
2023/12/27 03:54:34;;;;;;;1.60;0.35;;;;;;;;;;5015131;28;20052;-71
2023/12/27 03:57:00;;;;;;;3.80;0.52;;;;;;;;;;5002241;28;20034;-70
2023/12/27 03:59:25;;;;;;;1.60;0.60;;;;;;;;;;5009838;28;20042;-70
2023/12/27 04:01:50;;;;;;;1.35;0.50;;;;;;;;;;5003711;28;20041;-71
2023/12/27 04:04:15;;;;;;;3.13;0.60;;;;;;;;;;5015735;28;20129;-70
2023/12/27 04:06:41;;;;;;;3.10;0.55;;;;;;;;;;5013250;28;20037;-71
2023/12/27 04:09:07;;;;;;;3.42;0.55;;;;;;;;;;5012755;28;20553;-70
2023/12/27 04:11:32;;;;;;;1.25;0.35;;;;;;;;;;5003600;28;20077;-70
2023/12/27 04:13:58;;;;;;;0.65;0.30;;;;;;;;;;5013752;28;20040;-71
2023/12/27 04:16:23;;;;;;;0.90;0.50;;;;;;;;;;5014769;28;20041;-70
2023/12/27 04:18:48;;;;;;;2.67;0.50;;;;;;;;;;5013429;28;20033;-71
2023/12/27 04:21:14;;;;;;;1.05;0.32;;;;;;;;;;5014390;28;20041;-70
2023/12/27 04:23:39;;;;;;;1.35;0.20;;;;;;;;;;4998997;28;20045;-70
2023/12/27 04:26:05;;;;;;;1.65;0.60;;;;;;;;;;4988513;28;20535;-71
2023/12/27 04:28:31;;;;;;;2.50;0.60;;;;;;;;;;5011581;28;20056;-70
2023/12/27 04:30:56;;;;;;;2.67;0.73;;;;;;;;;;5014352;28;20525;-70
2023/12/27 04:33:21;;;;;;;2.67;0.50;;;;;;;;;;5014387;28;20041;-71
2023/12/27 04:35:47;;;;;;;3.17;0.45;;;;;;;;;;5019962;28;20071;-70
2023/12/27 04:38:13;;;;;;;1.95;0.65;;;;;;;;;;5008523;28;20044;-70
2023/12/27 04:40:44;;;;;;;4.22;0.77;;;;;;;;;;5013507;28;20048;-70
2023/12/27 04:43:09;;;;;;;4.45;0.88;;;;;;;;;;5011348;28;20032;-70
2023/12/27 04:45:35;;;;;;;5.32;0.73;;;;;;;;;;5013994;28;20165;-70
2023/12/27 04:48:00;;;;;;;2.78;0.70;;;;;;;;;;5014178;28;20087;-71
2023/12/27 04:50:25;;;;;;;1.63;0.68;;;;;;;;;;5013269;28;20071;-70
2023/12/27 04:52:51;;;;;;;1.98;0.57;;;;;;;;;;5008431;28;20065;-71
2023/12/27 04:55:16;;;;;;;2.78;0.70;;;;;;;;;;5012256;28;20220;-70
2023/12/27 04:57:41;;;;;;;2.53;0.40;;;;;;;;;;5010349;28;20049;-72
2023/12/27 05:00:07;;;;;;;0.98;0.50;;;;;;;;;;5013190;28;20037;-72
2023/12/27 05:02:32;;;;;;;0.73;0.40;;;;;;;;;;5011460;28;21027;-69
2023/12/27 05:04:58;;;;;;;1.90;0.50;;;;;;;;;;5013270;28;20478;-71
2023/12/27 05:07:23;;;;;;;1.48;0.40;;;;;;;;;;4987954;28;20123;-70
2023/12/27 05:09:48;;;;;;;3.75;0.60;;;;;;;;;;5013854;28;20091;-72
2023/12/27 05:12:14;;;;;;;4.47;0.88;;;;;;;;;;5009921;28;20041;-71
2023/12/27 05:14:39;;;;;;;2.97;0.70;;;;;;;;;;5014313;28;20096;-71
2023/12/27 05:17:04;;;;;;;0.82;0.45;;;;;;;;;;5013665;28;20087;-71
2023/12/27 05:19:30;;;;;;;2.85;0.45;;;;;;;;;;5016216;28;20036;-70
2023/12/27 05:21:55;;;;;;;0.98;0.20;;;;;;;;;;5007666;28;20451;-71
2023/12/27 05:24:20;;;;;;;0.45;0.30;;;;;;;;;;5017332;28;20033;-70
2023/12/27 05:26:46;;;;;;;0.57;0.45;;;;;;;;;;5017977;28;20088;-71
2023/12/27 05:29:11;;;;;;;0.68;0.30;;;;;;;;;;5018584;28;20041;-70
2023/12/27 05:31:36;;;;;;;0.20;0.20;;;;;;;;;;5018212;28;20041;-71
2023/12/27 05:34:02;;;;;;;1.58;0.52;;;;;;;;;;5018013;28;20039;-71
2023/12/27 05:36:27;;;;;;;3.65;0.98;;;;;;;;;;4990148;28;20078;-70
2023/12/27 05:38:53;;;;;;;3.70;0.90;;;;;;;;;;5017520;28;20504;-72
2023/12/27 05:41:24;;;;;;;4.20;0.95;;;;;;;;;;5016235;28;20068;-72
2023/12/27 05:43:49;;;;;;;3.70;1.25;;;;;;;;;;5017582;28;20093;-72
2023/12/27 05:46:15;;;;;;;3.97;0.80;;;;;;;;;;5017257;28;20453;-71
2023/12/27 05:48:40;;;;;;;2.55;0.70;;;;;;;;;;5018056;28;20136;-71
2023/12/27 05:51:05;;;;;;;1.13;0.60;;;;;;;;;;5006490;28;20034;-71
2023/12/27 05:53:31;;;;;;;5.70;0.60;;;;;;;;;;5018094;28;20163;-71
2023/12/27 05:55:56;;;;;;;2.42;0.57;;;;;;;;;;5017351;28;20033;-71
2023/12/27 05:58:21;;;;;;;4.00;0.77;;;;;;;;;;5017129;28;20518;-70
2023/12/27 06:00:47;;;;;;;1.33;0.50;;;;;;;;;;5017006;28;20302;-71
2023/12/27 06:03:12;;;;;;;2.20;0.50;;;;;;;;;;5018179;28;20037;-71
2023/12/27 06:05:38;;;;;;;1.75;0.60;;;;;;;;;;5009048;28;20038;-69
2023/12/27 06:08:03;;;;;;;1.65;0.30;;;;;;;;;;4995969;28;20049;-72
2023/12/27 06:10:30;;;;;;;2.65;0.55;;;;;;;;;;5015765;28;20131;-71
2023/12/27 06:12:55;;;;;;;2.92;0.85;;;;;;;;;;5012948;28;20382;-71
2023/12/27 06:15:22;;;;;;;1.33;0.68;;;;;;;;;;5016566;28;20030;-70
2023/12/27 06:17:47;;;;;;;6.28;0.82;;;;;;;;;;5006426;28;20049;-70
2023/12/27 06:20:12;;;;;;;1.83;0.40;;;;;;;;;;5016739;28;20556;-71
2023/12/27 06:22:38;;;;;;;3.80;0.63;;;;;;;;;;4998319;28;20045;-70
2023/12/27 06:25:04;;;;;;;2.50;0.70;;;;;;;;;;5013704;28;22029;-71
2023/12/27 06:27:29;;;;;;;2.33;0.70;;;;;;;;;;5015532;28;20176;-71
2023/12/27 06:29:54;;;;;;;2.20;1.25;;;;;;;;;;5004032;28;20045;-71
2023/12/27 06:32:20;;;;;;;3.28;1.02;;;;;;;;;;5002635;28;20121;-70
2023/12/27 06:34:45;;;;;;;3.53;1.10;;;;;;;;;;5014259;28;20061;-71
2023/12/27 06:37:10;;;;;;;2.40;0.60;;;;;;;;;;5015214;28;20029;-71
2023/12/27 06:39:36;;;;;;;6.00;1.35;;;;;;;;;;5015585;28;20049;-71
2023/12/27 06:42:02;;;;;;;3.60;1.17;;;;;;;;;;4996628;28;20037;-71
2023/12/27 06:44:28;;;;;;;1.60;0.60;;;;;;;;;;5014130;28;20048;-72
2023/12/27 06:46:53;;;;;;;3.20;1.90;;;;;;;;;;5004680;28;20033;-71
2023/12/27 06:49:19;;;;;;;5.18;1.20;;;;;;;;;;5014469;28;20049;-73
2023/12/27 06:51:44;;;;;;;5.85;1.25;;;;;;;;;;5013629;28;20053;-72
2023/12/27 06:54:10;;;;;;;4.75;1.25;;;;;;;;;;5014552;28;20572;-70
2023/12/27 06:56:38;;;;;;;5.40;1.63;;;;;;;;;;5010527;28;20053;-70
2023/12/27 06:59:04;;;;;;;5.40;1.60;;;;;;;;;;4998729;28;20021;-72
2023/12/27 07:01:29;;;;;;;6.32;1.38;;;;;;;;;;5004106;28;20401;-71
2023/12/27 07:03:55;;;;;;;5.75;1.95;;;;;;;;;;5012803;28;20042;-72
2023/12/27 07:06:20;;;;;;;2.28;1.40;;;;;;;;;;5008656;28;20075;-72
2023/12/27 07:08:46;;;;;;;2.55;1.23;;;;;;;;;;5008862;28;20136;-71
2023/12/27 07:11:18;;;;;;;3.90;1.85;;;;;;;;;;5013489;28;20410;-72
2023/12/27 07:13:46;;;;;;;2.80;0.90;;;;;;;;;;5014345;28;20053;-73
2023/12/27 07:16:14;;;;;;;3.35;0.95;;;;;;;;;;4987881;28;20485;-72
2023/12/27 07:18:40;;;;;;;3.00;1.45;;;;;;;;;;5014608;28;20045;-72
2023/12/27 07:21:06;;;;;;;5.28;0.93;;;;;;;;;;5015001;28;20263;-72
2023/12/27 07:23:31;;;;;;;3.22;1.10;;;;;;;;;;5011207;28;20128;-71
2023/12/27 07:25:59;;;;;;;3.33;1.10;;;;;;;;;;5003403;28;20114;-72
2023/12/27 07:28:25;;;;;;;4.30;1.45;;;;;;;;;;4990328;28;20041;-72
2023/12/27 07:30:51;;;;;;;1.73;1.17;;;;;;;;;;4998994;28;20041;-72
2023/12/27 07:33:16;;;;;;;6.07;3.22;;;;;;;;;;5007959;28;20041;-73
2023/12/27 07:35:44;;;;;;;4.85;2.58;;;;;;;;;;5008657;28;20041;-72
2023/12/27 07:38:10;;;;;;;6.55;2.50;;;;;;;;;;4996789;28;20030;-73
2023/12/27 07:40:35;;;;;;;3.03;1.17;;;;;;;;;;5014729;28;20071;-73
2023/12/27 07:43:02;;;;;;;2.00;0.98;;;;;;;;;;4986378;28;20045;-72
2023/12/27 07:45:27;;;;;;;4.80;0.90;;;;;;;;;;5013189;28;20542;-72
2023/12/27 07:47:52;;;;;;;4.20;1.70;;;;;;;;;;5012668;28;20076;-74
2023/12/27 07:50:18;;;;;;;8.20;3.17;;;;;;;;;;5014547;28;20038;-73
2023/12/27 07:52:43;;;;;;;7.25;4.50;;;;;;;;;;5007690;28;20076;-73
2023/12/27 07:55:09;;;;;;;10.75;4.90;;;;;;;;;;4985334;28;20030;-73
2023/12/27 07:57:34;;;;;;;9.25;4.95;;;;;;;;;;4993151;28;20044;-72
2023/12/27 07:59:59;;;;;;;7.82;4.10;;;;;;;;;;5013308;28;20083;-74
2023/12/27 08:02:25;;;;;;;6.75;3.83;;;;;;;;;;5014418;28;20037;-73
2023/12/27 08:04:50;;;;;;;8.23;3.35;;;;;;;;;;5013709;28;20037;-73
2023/12/27 08:07:16;;;;;;;8.60;4.50;;;;;;;;;;4989675;28;20038;-74
2023/12/27 08:09:42;;;;;;;9.68;4.38;;;;;;;;;;5012256;28;20045;-73
2023/12/27 08:12:08;;;;;;;9.70;5.35;;;;;;;;;;5002424;28;20092;-73
2023/12/27 08:14:33;;;;;;;10.35;4.47;;;;;;;;;;5012023;28;20076;-73
2023/12/27 08:16:59;;;;;;;5.78;2.75;;;;;;;;;;5011711;28;20041;-74
2023/12/27 08:19:24;;;;;;;7.97;3.90;;;;;;;;;;5010785;28;20038;-73
2023/12/27 08:21:50;;;;;;;9.30;4.05;;;;;;;;;;4992810;28;20291;-73
2023/12/27 08:24:15;;;;;;;5.95;2.88;;;;;;;;;;4994667;28;20120;-74
2023/12/27 08:26:41;;;;;;;8.18;3.00;;;;;;;;;;5002604;28;20053;-73
2023/12/27 08:29:07;;;;;;;6.85;3.10;;;;;;;;;;5011853;28;20057;-74
2023/12/27 08:31:34;;;;;;;6.47;2.58;;;;;;;;;;5006564;28;20041;-73
2023/12/27 08:34:02;;;;;;;3.22;1.95;;;;;;;;;;5014127;28;20037;-73
2023/12/27 08:36:29;;;;;;;7.07;2.00;;;;;;;;;;4999523;28;20053;-73
2023/12/27 08:38:55;;;;;;;5.63;2.10;;;;;;;;;;4990671;28;20573;-74
2023/12/27 08:41:22;;;;;;;10.50;2.63;;;;;;;;;;5012429;28;20037;-74
2023/12/27 08:43:47;;;;;;;6.45;3.22;;;;;;;;;;5013300;28;20165;-74
2023/12/27 08:46:14;;;;;;;4.22;2.47;;;;;;;;;;5014382;28;20124;-73
2023/12/27 08:48:40;;;;;;;4.78;2.65;;;;;;;;;;5007557;28;20034;-74
2023/12/27 08:51:06;;;;;;;4.00;1.58;;;;;;;;;;4992146;28;20207;-74
2023/12/27 08:53:31;;;;;;;8.60;3.10;;;;;;;;;;4982181;28;20044;-74
2023/12/27 08:55:57;;;;;;;8.05;2.63;;;;;;;;;;4993743;28;20046;-73
2023/12/27 08:58:23;;;;;;;7.88;2.70;;;;;;;;;;5006356;28;20561;-72
2023/12/27 09:00:48;;;;;;;6.97;2.67;;;;;;;;;;5005860;28;20076;-72
2023/12/27 09:03:15;;;;;;;9.77;3.13;;;;;;;;;;5011898;28;20037;-73
2023/12/27 09:05:40;;;;;;;6.38;2.65;;;;;;;;;;5010806;28;20542;-69
2023/12/27 09:08:05;;;;;;;6.80;2.20;;;;;;;;;;4990529;28;20180;-70
2023/12/27 09:10:31;;;;;;;5.85;2.75;;;;;;;;;;4999392;28;20065;-69
2023/12/27 09:12:56;;;;;;;7.72;2.25;;;;;;;;;;5006540;28;20104;-73
2023/12/27 09:15:21;;;;;;;7.40;2.05;;;;;;;;;;5007650;28;20043;-71
2023/12/27 09:17:47;;;;;;;8.90;2.63;;;;;;;;;;4993620;28;20506;-72
2023/12/27 09:20:12;;;;;;;6.88;2.22;;;;;;;;;;5006377;28;20029;-72
2023/12/27 09:22:38;;;;;;;7.68;2.58;;;;;;;;;;4996938;28;20183;-71
2023/12/27 09:25:03;;;;;;;6.63;3.03;;;;;;;;;;5011770;28;20457;-72
2023/12/27 09:27:29;;;;;;;10.55;3.35;;;;;;;;;;5007296;28;20038;-69
2023/12/27 09:29:55;;;;;;;8.35;3.50;;;;;;;;;;5009127;28;20049;-70
2023/12/27 09:32:20;;;;;;;6.22;3.17;;;;;;;;;;5003334;28;20034;-72
2023/12/27 09:34:46;;;;;;;8.02;2.95;;;;;;;;;;5007309;28;20084;-71
2023/12/27 09:37:11;;;;;;;7.82;4.50;;;;;;;;;;4996825;28;20037;-71
2023/12/27 09:39:37;;;;;;;10.20;3.85;;;;;;;;;;4997905;28;20035;-72
2023/12/27 09:42:03;;;;;;;5.95;3.83;;;;;;;;;;5003081;28;20561;-71
2023/12/27 09:44:29;;;;;;;10.25;2.88;;;;;;;;;;4999105;28;20055;-70
2023/12/27 09:46:57;;;;;;;8.77;3.33;;;;;;;;;;5010037;28;20111;-71
2023/12/27 09:49:23;;;;;;;5.50;3.08;;;;;;;;;;5008749;28;20110;-72
2023/12/27 09:51:48;;;;;;;8.50;3.30;;;;;;;;;;4992726;28;20035;-72
2023/12/27 09:54:16;;;;;;;9.07;3.28;;;;;;;;;;5007233;28;20044;-70
2023/12/27 09:56:43;;;;;;;9.88;3.17;;;;;;;;;;5008596;28;20053;-71
2023/12/27 09:59:13;;;;;;;7.82;2.60;;;;;;;;;;5007661;28;20514;-72
2023/12/27 10:01:42;;;;;;;8.35;3.08;;;;;;;;;;5011685;28;20049;-72
2023/12/27 10:04:26;;;;;;;5.70;2.67;;;;;;;;;;4997985;28;20525;-72
2023/12/27 10:06:53;;;;;;;4.65;2.58;;;;;;;;;;5014550;28;20037;-71
2023/12/27 10:09:18;;;;;;;8.73;2.40;;;;;;;;;;5007427;28;20042;-71
2023/12/27 10:11:44;;;;;;;6.43;2.58;;;;;;;;;;5002881;28;20415;-71
2023/12/27 10:14:11;;;;;;;25.67;11.70;;;;;;;;;;5015975;28;20053;-71
2023/12/27 10:16:36;;;;;;;9.45;2.58;;;;;;;;;;5003977;28;20534;-72
2023/12/27 10:19:07;;;;;;;7.43;3.05;;;;;;;;;;5018871;28;20033;-71
2023/12/27 10:21:43;;;;;;;7.53;2.83;;;;;;;;;;5015629;28;20048;-71
2023/12/27 10:24:11;;;;;;;9.70;4.22;;;;;;;;;;5016353;28;20053;-70
2023/12/27 10:26:37;;;;;;;8.55;3.47;;;;;;;;;;5017640;28;20549;-70
2023/12/27 10:29:03;;;;;;;8.88;3.28;;;;;;;;;;5014406;28;20068;-71
2023/12/27 10:31:29;;;;;;;22.25;7.93;;;;;;;;;;5016442;28;20050;-71
2023/12/27 10:33:55;;;;;;;10.20;3.28;;;;;;;;;;5017505;28;20045;-71
2023/12/27 10:36:21;;;;;;;4.85;2.72;;;;;;;;;;5021028;28;20041;-72
2023/12/27 10:38:46;;;;;;;8.25;3.67;;;;;;;;;;5016463;28;20045;-71
2023/12/27 10:41:12;;;;;;;7.97;3.13;;;;;;;;;;5019562;28;20083;-70
2023/12/27 10:43:37;;;;;;;8.32;3.38;;;;;;;;;;5007219;28;20048;-71
2023/12/27 10:46:09;;;;;;;4.75;2.65;;;;;;;;;;5016048;28;20107;-71
2023/12/27 10:48:39;;;;;;;4.78;2.70;;;;;;;;;;5022665;28;20041;-70
2023/12/27 10:51:07;;;;;;;5.32;2.65;;;;;;;;;;5016988;28;20052;-70
2023/12/27 10:53:34;;;;;;;5.70;2.92;;;;;;;;;;5014371;28;20052;-72
2023/12/27 10:56:02;;;;;;;6.13;2.90;;;;;;;;;;5005482;28;20029;-72
2023/12/27 10:58:30;;;;;;;9.15;3.60;;;;;;;;;;5024124;28;20448;-70
2023/12/27 11:00:58;;;;;;;5.85;3.05;;;;;;;;;;5019861;28;20099;-71
2023/12/27 11:03:25;;;;;;;5.18;2.88;;;;;;;;;;5011502;28;20045;-71
2023/12/27 11:05:51;;;;;;;4.93;2.38;;;;;;;;;;5009944;28;20116;-71
2023/12/27 11:08:18;;;;;;;6.13;2.97;;;;;;;;;;5007621;28;20127;-69
2023/12/27 11:10:45;;;;;;;7.57;3.05;;;;;;;;;;5012674;28;20034;-71
2023/12/27 11:13:11;;;;;;;6.45;3.00;;;;;;;;;;5005444;28;20040;-69
2023/12/27 11:15:39;;;;;;;9.93;3.45;;;;;;;;;;5013607;28;20544;-70
2023/12/27 11:18:08;;;;;;;8.02;4.57;;;;;;;;;;5018525;28;20060;-70
2023/12/27 11:20:34;;;;;;;9.98;3.53;;;;;;;;;;5018264;28;20060;-71
2023/12/27 11:22:59;;;;;;;10.35;3.25;;;;;;;;;;5010821;28;20056;-69
2023/12/27 11:25:25;;;;;;;5.85;2.72;;;;;;;;;;4990876;28;20307;-72
2023/12/27 11:27:52;;;;;;;7.38;3.17;;;;;;;;;;5020145;28;20029;-71
2023/12/27 11:30:19;;;;;;;4.03;2.53;;;;;;;;;;5016521;28;20371;-72
2023/12/27 11:32:46;;;;;;;4.97;2.33;;;;;;;;;;5020226;28;20030;-71
2023/12/27 11:35:24;;;;;;;5.28;2.80;;;;;;;;;;5011015;28;20068;-72
2023/12/27 11:37:52;;;;;;;8.70;2.97;;;;;;;;;;4990884;28;20043;-73
2023/12/27 11:40:34;;;;;;;6.32;2.90;;;;;;;;;;5017032;28;20135;-73
2023/12/27 11:43:03;;;;;;;8.55;3.15;;;;;;;;;;5017279;28;20030;-71
2023/12/27 11:45:55;;;;;;;7.63;4.78;;;;;;;;;;5017999;28;20100;-73
2023/12/27 11:48:20;;;;;;;6.45;3.40;;;;;;;;;;5009446;28;20118;-72
2023/12/27 11:50:46;;;;;;;4.05;2.47;;;;;;;;;;5018470;28;20151;-69
2023/12/27 11:53:11;;;;;;;5.13;2.60;;;;;;;;;;5015779;28;20118;-72
2023/12/27 11:55:37;;;;;;;7.40;2.55;;;;;;;;;;5017738;28;20034;-72
2023/12/27 11:58:03;;;;;;;9.43;2.63;;;;;;;;;;5017014;28;20095;-72
2023/12/27 12:00:28;;;;;;;8.45;3.63;;;;;;;;;;5018863;28;20053;-70
2023/12/27 12:02:59;;;;;;;6.90;3.33;;;;;;;;;;4990563;28;20029;-72
2023/12/27 12:05:55;;;;;;;9.35;2.92;;;;;;;;;;5016240;28;20603;-71
2023/12/27 12:08:40;;;;;;;5.63;2.90;;;;;;;;;;4980149;28;20030;-72
2023/12/27 12:11:12;;;;;;;8.10;3.50;;;;;;;;;;5001256;28;20612;-72
2023/12/27 12:13:39;;;;;;;11.40;4.55;;;;;;;;;;5017968;28;20138;-72
2023/12/27 12:16:08;;;;;;;7.95;5.53;;;;;;;;;;5020470;28;20541;-72
2023/12/27 12:18:34;;;;;;;7.15;3.28;;;;;;;;;;5021992;28;20529;-72
2023/12/27 12:20:59;;;;;;;9.48;3.53;;;;;;;;;;5015216;28;20038;-71
2023/12/27 12:23:28;;;;;;;5.22;2.45;;;;;;;;;;4996293;28;20041;-71
2023/12/27 12:26:00;;;;;;;7.75;2.85;;;;;;;;;;5017440;28;20044;-71
2023/12/27 12:28:27;;;;;;;11.23;2.83;;;;;;;;;;5012799;28;20172;-71
2023/12/27 12:30:55;;;;;;;5.63;2.63;;;;;;;;;;5016793;28;20414;-71
2023/12/27 12:33:21;;;;;;;3.92;2.35;;;;;;;;;;5000780;28;20145;-72
2023/12/27 12:35:46;;;;;;;5.13;3.00;;;;;;;;;;5015204;28;20541;-72
2023/12/27 12:38:12;;;;;;;10.40;3.90;;;;;;;;;;5017172;28;20131;-71
2023/12/27 12:40:37;;;;;;;8.73;3.63;;;;;;;;;;5020616;28;20168;-72
2023/12/27 12:43:03;;;;;;;7.07;3.33;;;;;;;;;;5014579;28;20106;-70
2023/12/27 12:45:29;;;;;;;7.93;3.60;;;;;;;;;;5014211;28;20625;-72
2023/12/27 12:47:54;;;;;;;5.53;3.55;;;;;;;;;;5009765;28;20540;-71
2023/12/27 12:50:20;;;;;;;8.27;4.45;;;;;;;;;;5021102;28;20060;-72
2023/12/27 12:52:46;;;;;;;7.30;4.20;;;;;;;;;;5014039;28;20055;-71
2023/12/27 12:55:11;;;;;;;10.73;4.43;;;;;;;;;;5017482;28;20040;-71
2023/12/27 12:57:38;;;;;;;7.45;4.00;;;;;;;;;;5019874;28;20048;-72
2023/12/27 13:00:05;;;;;;;10.15;4.53;;;;;;;;;;5013949;28;20115;-71
2023/12/27 13:02:31;;;;;;;6.20;4.15;;;;;;;;;;5016970;28;20509;-71
2023/12/27 13:04:58;;;;;;;6.60;3.70;;;;;;;;;;5018557;28;20041;-71
2023/12/27 13:07:28;;;;;;;6.35;3.70;;;;;;;;;;4978520;28;20051;-71
2023/12/27 13:10:00;;;;;;;5.72;3.65;;;;;;;;;;5010846;28;20115;-71
2023/12/27 13:12:29;;;;;;;12.30;3.90;;;;;;;;;;5016065;28;20033;-72
2023/12/27 13:14:55;;;;;;;7.85;3.80;;;;;;;;;;5012553;28;20072;-72
2023/12/27 13:17:20;;;;;;;7.15;4.05;;;;;;;;;;5010767;28;20057;-72
2023/12/27 13:19:45;;;;;;;6.95;3.83;;;;;;;;;;5003157;28;20033;-72
2023/12/27 13:22:12;;;;;;;7.00;4.15;;;;;;;;;;5012120;28;20037;-71
2023/12/27 13:24:38;;;;;;;7.88;3.88;;;;;;;;;;5016686;28;20037;-72
2023/12/27 13:27:05;;;;;;;5.07;3.38;;;;;;;;;;5018425;28;20245;-73
2023/12/27 13:29:30;;;;;;;6.65;3.70;;;;;;;;;;5015184;28;20464;-73
2023/12/27 13:31:56;;;;;;;9.65;3.97;;;;;;;;;;5015385;28;20120;-71
2023/12/27 13:34:21;;;;;;;10.77;4.90;;;;;;;;;;5001542;28;20041;-73
2023/12/27 13:36:46;;;;;;;7.00;3.28;;;;;;;;;;5012148;28;20128;-71
2023/12/27 13:39:13;;;;;;;7.80;3.72;;;;;;;;;;5006758;28;20030;-70
2023/12/27 13:41:39;;;;;;;7.80;3.83;;;;;;;;;;5010409;28;20041;-72
2023/12/27 13:44:04;;;;;;;7.88;3.25;;;;;;;;;;5018527;28;20044;-72
2023/12/27 13:46:30;;;;;;;5.78;3.47;;;;;;;;;;5013223;28;20048;-73
2023/12/27 13:48:56;;;;;;;8.40;3.38;;;;;;;;;;5016209;28;20451;-72
2023/12/27 13:51:21;;;;;;;9.88;4.07;;;;;;;;;;5016408;28;20045;-70
2023/12/27 13:53:46;;;;;;;9.75;3.33;;;;;;;;;;5007916;28;20045;-69
2023/12/27 13:56:14;;;;;;;10.07;4.07;;;;;;;;;;5002042;28;20485;-70
2023/12/27 13:58:40;;;;;;;8.35;3.92;;;;;;;;;;5009181;28;20150;-72
2023/12/27 14:01:05;;;;;;;7.57;4.18;;;;;;;;;;4995096;28;20083;-72
2023/12/27 14:03:32;;;;;;;9.93;4.45;;;;;;;;;;5001348;28;20637;-72
2023/12/27 14:05:57;;;;;;;7.35;4.15;;;;;;;;;;4991410;28;20038;-74
2023/12/27 14:08:23;;;;;;;7.20;3.85;;;;;;;;;;5000771;28;20052;-71
2023/12/27 14:10:48;;;;;;;8.05;3.40;;;;;;;;;;5008245;28;20045;-73
2023/12/27 14:13:14;;;;;;;9.18;3.30;;;;;;;;;;5004371;28;20037;-72
2023/12/27 14:15:39;;;;;;;6.88;3.00;;;;;;;;;;4995762;28;20041;-73
2023/12/27 14:18:04;;;;;;;6.10;3.13;;;;;;;;;;5007612;28;20038;-72
2023/12/27 14:20:31;;;;;;;6.38;3.65;;;;;;;;;;5003195;28;20128;-70
2023/12/27 14:22:57;;;;;;;4.82;3.08;;;;;;;;;;5010154;28;20051;-71
2023/12/27 14:25:22;;;;;;;8.90;4.30;;;;;;;;;;5006178;28;20109;-71
2023/12/27 14:27:48;;;;;;;7.43;3.20;;;;;;;;;;5009800;28;20083;-70
2023/12/27 14:30:13;;;;;;;6.35;4.13;;;;;;;;;;5001782;28;20038;-71
2023/12/27 14:32:39;;;;;;;7.40;3.90;;;;;;;;;;5013206;28;20041;-73
2023/12/27 14:35:06;;;;;;;7.28;3.60;;;;;;;;;;5007298;28;20041;-71
2023/12/27 14:37:32;;;;;;;8.95;4.68;;;;;;;;;;5000930;28;20533;-71